Arbon, Idaho
Current Conditions -  °F | °C
As of 10:53 AM on Saturday 25 Oct 2014 (Local Time) from KPIH Reporting Station
Clear Clear  
Wind Chill: 22°   Ceiling: Unl
Heat Index: 22°   Visibility: 10mi
Dew Point: -2°   Wind: 24mph
Humidity: 20%   Direction: 180°S
Pressure: 30"   Gusts: 35mph
Location:  42.46°N, 112.57°W
Report Text: KPIH 251653Z 18021G30KT 10SM CLR 22/M02 A3000 RMK AO2 PK WND 19032/1635 SLP127 T02171022
Loading
Personal Weather Stations






























Interactive Weather Map
Tropical Storm Tracking
New forecast layout! Learn more

10-Day Weather Forecast

Advertisements
Track Severe Weather on mobile